createdAt,value
2023-08-03T00:00:46.910Z,19.07
2023-08-03T00:01:47.216Z,19.05
2023-08-03T00:02:47.059Z,18.97
2023-08-03T00:03:47.147Z,19.02
2023-08-03T00:04:47.047Z,19.02
2023-08-03T00:05:47.081Z,19.02
2023-08-03T00:06:47.135Z,19.01
2023-08-03T00:07:47.147Z,18.99
2023-08-03T00:08:47.182Z,18.99
2023-08-03T00:09:47.218Z,18.96
2023-08-03T00:10:47.250Z,19.05
2023-08-03T00:11:47.283Z,19.06
2023-08-03T00:12:47.387Z,19.02
2023-08-03T00:13:47.360Z,19.02
2023-08-03T00:14:47.387Z,18.99
2023-08-03T00:15:47.477Z,19.01
2023-08-03T00:16:47.462Z,19.02
2023-08-03T00:17:47.573Z,19.05
2023-08-03T00:18:47.534Z,19.01
2023-08-03T00:19:47.569Z,19.02
2023-08-03T00:20:47.596Z,19.05
2023-08-03T00:21:47.632Z,19.12
2023-08-03T00:22:47.947Z,19.10
2023-08-03T00:23:47.699Z,19.05
2023-08-03T00:24:47.736Z,18.99
2023-08-03T00:25:47.769Z,19.12
2023-08-03T00:26:47.844Z,19.02
2023-08-03T00:27:47.842Z,19.05
2023-08-03T00:28:47.887Z,19.06
2023-08-03T00:29:47.911Z,19.07
2023-08-03T00:30:47.941Z,19.05
2023-08-03T00:31:48.084Z,18.99
2023-08-03T00:32:48.054Z,18.99
2023-08-03T00:33:48.054Z,19.05
2023-08-03T00:34:48.084Z,18.99
2023-08-03T00:35:48.133Z,18.91
2023-08-03T00:36:48.166Z,18.93
2023-08-03T00:37:48.190Z,18.90
2023-08-03T00:38:48.223Z,19.02
2023-08-03T00:39:48.283Z,18.96
2023-08-03T00:40:48.294Z,18.96
2023-08-03T00:41:48.328Z,18.89
2023-08-03T00:42:48.362Z,18.90
2023-08-03T00:43:48.396Z,18.91
2023-08-03T00:44:48.432Z,18.91
2023-08-03T00:45:48.465Z,18.89
2023-08-03T00:46:48.556Z,18.79
2023-08-03T00:47:48.558Z,18.84
2023-08-03T00:48:48.567Z,18.84
2023-08-03T00:49:48.603Z,18.87
2023-08-03T00:50:48.645Z,18.89
2023-08-03T00:51:48.673Z,18.83
2023-08-03T00:52:48.739Z,18.79
2023-08-03T00:53:48.745Z,18.78
2023-08-03T00:54:48.810Z,18.78
2023-08-03T00:55:48.816Z,18.86
2023-08-03T00:56:48.851Z,18.87
2023-08-03T00:57:48.888Z,18.76
2023-08-03T00:58:48.916Z,18.78
2023-08-03T00:59:48.964Z,18.89
2023-08-03T01:00:49.014Z,18.86
2023-08-03T01:01:49.021Z,18.74
2023-08-03T01:02:49.107Z,18.89
2023-08-03T01:03:49.087Z,18.86
2023-08-03T01:04:49.124Z,18.83
2023-08-03T01:05:49.176Z,18.89
2023-08-03T01:06:49.202Z,18.82
2023-08-03T01:07:49.226Z,18.82
2023-08-03T01:08:49.262Z,18.86
2023-08-03T01:09:49.304Z,18.84
2023-08-03T01:10:49.362Z,18.89
2023-08-03T01:11:49.366Z,18.89
2023-08-03T01:12:49.402Z,18.86
2023-08-03T01:13:49.446Z,18.87
2023-08-03T01:14:49.489Z,18.86
2023-08-03T01:15:49.504Z,18.86
2023-08-03T01:16:49.565Z,18.82
2023-08-03T01:17:49.624Z,18.79
2023-08-03T01:18:49.606Z,18.75
2023-08-03T01:19:49.641Z,18.90
2023-08-03T01:20:49.674Z,18.76
2023-08-03T01:21:49.718Z,18.82
2023-08-03T01:22:49.744Z,18.89
2023-08-03T01:23:49.826Z,18.82
2023-08-03T01:24:49.812Z,18.87
2023-08-03T01:25:49.850Z,18.79
2023-08-03T01:26:49.885Z,18.82
2023-08-03T01:27:49.919Z,18.83
2023-08-03T01:28:49.952Z,18.79
2023-08-03T01:29:49.996Z,18.76
2023-08-03T01:30:50.119Z,18.83
2023-08-03T01:31:50.062Z,18.87
2023-08-03T01:32:50.323Z,18.87
2023-08-03T01:33:50.124Z,18.86
2023-08-03T01:34:50.176Z,18.87
2023-08-03T01:35:50.196Z,18.89
2023-08-03T01:36:50.232Z,18.83
2023-08-03T01:37:50.263Z,18.86
2023-08-03T01:39:07.061Z,18.83
2023-08-03T01:39:50.325Z,18.84
2023-08-03T01:40:50.363Z,18.82
2023-08-03T01:41:50.397Z,18.84
2023-08-03T01:42:50.439Z,18.82
2023-08-03T01:43:50.466Z,18.79
2023-08-03T01:44:50.505Z,18.86
2023-08-03T01:45:50.570Z,18.83
2023-08-03T01:46:50.576Z,18.82
2023-08-03T01:47:50.629Z,18.78
2023-08-03T01:48:50.651Z,18.86
2023-08-03T01:49:50.671Z,18.82
2023-08-03T01:50:50.715Z,18.78
2023-08-03T01:51:50.742Z,18.74
2023-08-03T01:52:50.782Z,18.82
2023-08-03T01:53:50.818Z,18.74
2023-08-03T01:54:50.847Z,18.75
2023-08-03T01:55:50.882Z,18.82
2023-08-03T01:56:50.915Z,18.69
2023-08-03T01:57:50.958Z,18.69
2023-08-03T01:58:50.987Z,18.75
2023-08-03T01:59:51.020Z,18.65
2023-08-03T02:00:51.060Z,18.64
2023-08-03T02:01:51.136Z,18.56
2023-08-03T02:02:51.184Z,18.60
2023-08-03T02:03:51.171Z,18.57
2023-08-03T02:04:51.209Z,18.53
2023-08-03T02:05:51.226Z,18.60
2023-08-03T02:06:51.264Z,18.56
2023-08-03T02:07:51.295Z,18.60
2023-08-03T02:08:51.338Z,18.50
2023-08-03T02:09:53.468Z,18.50
2023-08-03T02:10:51.403Z,18.42
2023-08-03T02:11:51.432Z,18.57
2023-08-03T02:12:51.468Z,18.57
2023-08-03T02:13:51.511Z,18.51
2023-08-03T02:14:51.542Z,18.49
2023-08-03T02:15:51.609Z,18.42
2023-08-03T02:16:51.723Z,18.46
2023-08-03T02:17:51.680Z,18.46
2023-08-03T02:18:51.681Z,18.44
2023-08-03T02:19:51.710Z,18.42
2023-08-03T02:20:51.750Z,18.46
2023-08-03T02:21:51.788Z,18.50
2023-08-03T02:22:51.822Z,18.50
2023-08-03T02:23:51.857Z,18.49
2023-08-03T02:24:51.884Z,18.44
2023-08-03T02:25:51.922Z,18.47
2023-08-03T02:26:51.954Z,18.39
2023-08-03T02:27:51.985Z,18.41
2023-08-03T02:28:52.020Z,18.32
2023-08-03T02:29:52.051Z,18.32
2023-08-03T02:30:52.086Z,18.46
2023-08-03T02:31:52.124Z,18.38
2023-08-03T02:32:52.185Z,18.47
2023-08-03T02:33:52.224Z,18.29
2023-08-03T02:34:52.234Z,18.35
2023-08-03T02:35:52.263Z,18.35
2023-08-03T02:36:52.305Z,18.38
2023-08-03T02:37:52.326Z,18.32
2023-08-03T02:38:52.366Z,18.34
2023-08-03T02:39:52.406Z,18.31
2023-08-03T02:40:52.439Z,18.42
2023-08-03T02:41:52.569Z,18.35
2023-08-03T02:42:52.502Z,18.28
2023-08-03T02:43:52.533Z,18.31
2023-08-03T02:44:52.575Z,18.36
2023-08-03T02:45:52.739Z,18.35
2023-08-03T02:46:52.639Z,18.36
2023-08-03T02:47:52.732Z,18.31
2023-08-03T02:48:52.707Z,18.34
2023-08-03T02:49:52.768Z,18.29
2023-08-03T02:50:52.775Z,18.34
2023-08-03T02:51:52.829Z,18.29
2023-08-03T02:52:52.865Z,18.32
2023-08-03T02:53:52.876Z,18.32
2023-08-03T02:54:52.914Z,18.31
2023-08-03T02:55:52.951Z,18.41
2023-08-03T02:56:52.982Z,18.28
2023-08-03T02:57:53.032Z,18.39
2023-08-03T02:58:53.052Z,18.32
2023-08-03T02:59:53.088Z,18.31
2023-08-03T03:00:53.116Z,18.28
2023-08-03T03:01:53.219Z,18.36
2023-08-03T03:02:53.266Z,18.44
2023-08-03T03:03:53.222Z,18.36
2023-08-03T03:04:53.259Z,18.32
2023-08-03T03:05:53.286Z,18.25
2023-08-03T03:06:53.323Z,18.31
2023-08-03T03:07:53.365Z,18.35
2023-08-03T03:08:53.423Z,18.34
2023-08-03T03:09:53.429Z,18.31
2023-08-03T03:10:53.462Z,18.34
2023-08-03T03:11:53.491Z,18.29
2023-08-03T03:12:53.529Z,18.32
2023-08-03T03:13:53.562Z,18.36
2023-08-03T03:14:53.599Z,18.41
2023-08-03T03:15:53.672Z,18.47
2023-08-03T03:16:53.663Z,18.41
2023-08-03T03:17:53.715Z,18.42
2023-08-03T03:18:53.747Z,18.36
2023-08-03T03:19:53.765Z,18.34
2023-08-03T03:20:53.804Z,18.47
2023-08-03T03:21:53.836Z,18.47
2023-08-03T03:22:53.869Z,18.47
2023-08-03T03:23:53.907Z,18.38
2023-08-03T03:24:53.963Z,18.29
2023-08-03T03:25:53.972Z,18.31
2023-08-03T03:26:54.012Z,18.41
2023-08-03T03:27:54.045Z,18.32
2023-08-03T03:28:54.080Z,18.31
2023-08-03T03:29:54.126Z,18.39
2023-08-03T03:30:54.148Z,18.38
2023-08-03T03:31:54.186Z,18.39
2023-08-03T03:32:54.249Z,18.29
2023-08-03T03:33:54.261Z,18.29
2023-08-03T03:34:54.289Z,18.42
2023-08-03T03:35:54.314Z,18.34
2023-08-03T03:36:54.353Z,18.42
2023-08-03T03:37:54.384Z,18.42
2023-08-03T03:38:54.425Z,18.49
2023-08-03T03:39:54.456Z,18.35
2023-08-03T03:40:54.500Z,18.47
2023-08-03T03:41:54.522Z,18.50
2023-08-03T03:42:54.559Z,18.42
2023-08-03T03:43:54.590Z,18.42
2023-08-03T03:44:54.636Z,18.56
2023-08-03T03:45:54.728Z,18.44
2023-08-03T03:46:54.693Z,18.47
2023-08-03T03:47:54.762Z,18.44
2023-08-03T03:48:54.770Z,18.44
2023-08-03T03:49:54.801Z,18.42
2023-08-03T03:50:54.833Z,18.47
2023-08-03T03:51:54.866Z,18.49
2023-08-03T03:52:54.899Z,18.46
2023-08-03T03:53:54.943Z,18.51
2023-08-03T03:54:54.969Z,18.47
2023-08-03T03:55:55.003Z,18.46
2023-08-03T03:56:55.037Z,18.49
2023-08-03T03:57:55.066Z,18.49
2023-08-03T03:58:55.108Z,18.49
2023-08-03T03:59:55.138Z,18.47
2023-08-03T04:00:55.202Z,18.44
2023-08-03T04:01:55.205Z,18.56
2023-08-03T04:02:55.340Z,18.46
2023-08-03T04:03:55.466Z,18.60
2023-08-03T04:04:55.313Z,18.56
2023-08-03T04:05:55.350Z,18.49
2023-08-03T04:06:55.379Z,18.49
2023-08-03T04:07:55.412Z,18.42
2023-08-03T04:08:55.467Z,18.62
2023-08-03T04:09:55.487Z,18.59
2023-08-03T04:10:55.516Z,18.57
2023-08-03T04:11:55.548Z,18.60
2023-08-03T04:12:55.634Z,18.60
2023-08-03T04:13:56.934Z,18.66
2023-08-03T04:14:55.655Z,18.68
2023-08-03T04:15:55.748Z,18.60
2023-08-03T04:16:55.722Z,18.53
2023-08-03T04:17:55.802Z,18.64
2023-08-03T04:18:55.797Z,18.53
2023-08-03T04:19:55.835Z,18.57
2023-08-03T04:20:55.864Z,18.59
2023-08-03T04:21:56.806Z,18.66
2023-08-03T04:22:55.935Z,18.71
2023-08-03T04:23:55.975Z,18.65
2023-08-03T04:24:56.001Z,18.64
2023-08-03T04:25:56.031Z,18.72
2023-08-03T04:26:56.065Z,18.74
2023-08-03T04:27:56.110Z,18.76
2023-08-03T04:28:56.149Z,18.74
2023-08-03T04:29:56.169Z,18.75
2023-08-03T04:30:56.329Z,18.82
2023-08-03T04:31:56.236Z,18.74
2023-08-03T04:32:56.296Z,18.75
2023-08-03T04:33:56.304Z,18.68
2023-08-03T04:34:56.338Z,18.76
2023-08-03T04:35:56.384Z,18.83
2023-08-03T04:36:56.407Z,18.83
2023-08-03T04:37:56.443Z,18.82
2023-08-03T04:38:56.482Z,18.83
2023-08-03T04:39:56.510Z,18.78
2023-08-03T04:40:56.547Z,18.84
2023-08-03T04:41:56.596Z,18.86
2023-08-03T04:42:56.633Z,18.87
2023-08-03T04:43:56.658Z,18.86
2023-08-03T04:44:56.691Z,18.84
2023-08-03T04:45:56.732Z,18.71
2023-08-03T04:46:56.796Z,18.94
2023-08-03T04:47:56.834Z,18.83
2023-08-03T04:48:56.821Z,18.83
2023-08-03T04:49:56.908Z,18.86
2023-08-03T04:50:56.897Z,18.97
2023-08-03T04:51:56.944Z,18.93
2023-08-03T04:52:56.959Z,18.86
2023-08-03T04:53:57.001Z,18.86
2023-08-03T04:54:57.026Z,18.93
2023-08-03T04:55:57.063Z,18.93
2023-08-03T04:56:57.303Z,18.84
2023-08-03T04:57:57.135Z,18.89
2023-08-03T04:58:57.165Z,18.89
2023-08-03T04:59:57.199Z,18.96
2023-08-03T05:00:57.363Z,18.89
2023-08-03T05:01:57.375Z,18.89
2023-08-03T05:02:57.336Z,18.93
2023-08-03T05:03:57.374Z,19.06
2023-08-03T05:04:57.380Z,19.01
2023-08-03T05:05:57.412Z,19.07
2023-08-03T05:06:57.445Z,19.09
2023-08-03T05:07:57.476Z,19.07
2023-08-03T05:08:57.517Z,19.02
2023-08-03T05:09:57.547Z,19.09
2023-08-03T05:10:57.580Z,19.06
2023-08-03T05:11:57.613Z,19.06
2023-08-03T05:12:57.649Z,19.09
2023-08-03T05:13:57.691Z,19.09
2023-08-03T05:14:57.721Z,19.06
2023-08-03T05:15:57.757Z,19.12
2023-08-03T05:16:57.855Z,19.15
2023-08-03T05:17:57.848Z,19.05
2023-08-03T05:18:57.857Z,19.12
2023-08-03T05:19:57.909Z,19.12
2023-08-03T05:20:57.931Z,19.12
2023-08-03T05:21:57.964Z,19.20
2023-08-03T05:22:57.997Z,19.21
2023-08-03T05:23:58.041Z,19.16
2023-08-03T05:24:58.064Z,19.20
2023-08-03T05:25:58.101Z,19.30
2023-08-03T05:26:58.133Z,19.28
2023-08-03T05:27:58.181Z,19.28
2023-08-03T05:28:58.213Z,19.27
2023-08-03T05:29:58.249Z,19.27
2023-08-03T05:30:58.308Z,19.25
2023-08-03T05:31:58.306Z,19.24
2023-08-03T05:32:58.376Z,19.34
2023-08-03T05:33:58.390Z,19.40
2023-08-03T05:34:58.412Z,19.32
2023-08-03T05:35:58.456Z,19.35
2023-08-03T05:36:58.481Z,19.43
2023-08-03T05:37:58.518Z,19.35
2023-08-03T05:38:58.554Z,19.43
2023-08-03T05:39:58.591Z,19.46
2023-08-03T05:40:58.620Z,19.45
2023-08-03T05:41:58.654Z,19.61
2023-08-03T05:42:58.703Z,19.58
2023-08-03T05:43:58.731Z,19.60
2023-08-03T05:44:58.771Z,19.61
2023-08-03T05:45:58.801Z,19.72
2023-08-03T05:46:58.834Z,19.65
2023-08-03T05:47:58.902Z,19.72
2023-08-03T05:48:58.906Z,19.67
2023-08-03T05:49:58.941Z,19.72
2023-08-03T05:50:58.980Z,19.62
2023-08-03T05:51:59.011Z,19.65
2023-08-03T05:52:59.036Z,19.72
2023-08-03T05:53:59.070Z,19.65
2023-08-03T05:54:59.110Z,19.71
2023-08-03T05:56:10.444Z,19.68
2023-08-03T05:56:59.177Z,19.67
2023-08-03T05:58:06.474Z,19.72
2023-08-03T05:59:52.260Z,19.76
2023-08-03T06:00:52.216Z,19.80
2023-08-03T06:02:45.488Z,19.79
2023-08-03T06:03:45.572Z,19.87
2023-08-03T06:05:49.502Z,19.90
2023-08-03T06:06:49.568Z,19.92
2023-08-03T06:08:42.712Z,19.97
2023-08-03T06:09:42.697Z,19.92
2023-08-03T06:11:46.955Z,20.01
2023-08-03T06:12:46.782Z,20.02
2023-08-03T06:14:40.003Z,20.05
2023-08-03T06:15:39.990Z,20.04
2023-08-03T06:17:44.074Z,20.05
2023-08-03T06:18:44.068Z,20.10
2023-08-03T06:20:37.292Z,20.15
2023-08-03T06:21:37.307Z,20.20
2023-08-03T06:23:41.379Z,20.19
2023-08-03T06:24:41.398Z,20.25
2023-08-03T06:26:45.459Z,20.27
2023-08-03T06:27:45.484Z,20.22
2023-08-03T06:29:38.461Z,20.30
2023-08-03T06:30:38.493Z,20.35
2023-08-03T06:32:31.676Z,20.44
2023-08-03T06:33:31.694Z,20.40
2023-08-03T06:35:35.790Z,20.57
2023-08-03T06:36:35.785Z,20.60
2023-08-03T06:38:28.954Z,20.63
2023-08-03T06:39:28.989Z,20.61
2023-08-03T06:41:33.053Z,20.76
2023-08-03T06:42:33.085Z,20.71
2023-08-03T06:43:33.128Z,20.76
2023-08-03T06:44:34.762Z,20.76
2023-08-03T06:45:33.199Z,20.73
2023-08-03T06:46:33.290Z,20.76
2023-08-03T06:47:33.289Z,20.87
2023-08-03T06:48:33.294Z,20.85
2023-08-03T06:49:33.342Z,20.87
2023-08-03T06:50:35.373Z,20.83
2023-08-03T06:51:33.410Z,20.93
2023-08-03T06:52:33.476Z,20.94
2023-08-03T06:53:33.477Z,20.97
2023-08-03T06:54:33.512Z,21.03
2023-08-03T06:55:33.578Z,20.94
2023-08-03T06:56:33.582Z,21.01
2023-08-03T06:57:33.611Z,21.06
2023-08-03T06:58:33.651Z,21.00
2023-08-03T06:59:33.682Z,21.03
2023-08-03T07:00:33.734Z,20.98
2023-08-03T07:01:33.774Z,20.94
2023-08-03T07:02:33.895Z,21.00
2023-08-03T07:03:33.906Z,20.94
2023-08-03T07:04:33.868Z,20.97
2023-08-03T07:05:33.910Z,21.05
2023-08-03T07:06:33.987Z,21.03
2023-08-03T07:07:33.972Z,21.01
2023-08-03T07:08:34.031Z,20.97
2023-08-03T07:09:34.041Z,20.96
2023-08-03T07:10:34.087Z,20.97
2023-08-03T07:11:34.113Z,21.01
2023-08-03T07:12:34.145Z,21.03
2023-08-03T07:13:34.180Z,21.00
2023-08-03T07:14:34.225Z,21.03
2023-08-03T07:15:34.256Z,21.06
2023-08-03T07:16:34.358Z,21.08
2023-08-03T07:17:34.356Z,21.05
2023-08-03T07:18:34.421Z,21.15
2023-08-03T07:19:34.398Z,21.18
2023-08-03T07:20:34.430Z,21.26
2023-08-03T07:21:34.469Z,21.09
2023-08-03T07:22:34.502Z,21.13
2023-08-03T07:23:34.579Z,21.18
2023-08-03T07:24:34.575Z,21.24
2023-08-03T07:25:34.619Z,21.19
2023-08-03T07:26:34.648Z,21.26
2023-08-03T07:27:34.686Z,21.12
2023-08-03T07:28:34.716Z,21.19
2023-08-03T07:29:34.749Z,21.15
2023-08-03T07:30:34.791Z,21.12
2023-08-03T07:31:34.833Z,21.09
2023-08-03T07:32:34.870Z,21.12
2023-08-03T07:33:34.901Z,21.06
2023-08-03T07:34:34.954Z,21.06
2023-08-03T07:35:34.963Z,21.08
2023-08-03T07:36:35.003Z,21.16
2023-08-03T07:37:35.041Z,21.09
2023-08-03T07:38:35.072Z,21.24
2023-08-03T07:39:35.107Z,21.19
2023-08-03T07:40:35.145Z,21.13
2023-08-03T07:41:35.186Z,21.21
2023-08-03T07:42:35.218Z,21.30
2023-08-03T07:43:35.247Z,21.27
2023-08-03T07:46:35.421Z,21.28
2023-08-03T07:47:35.459Z,21.42
2023-08-03T07:48:35.434Z,21.38
2023-08-03T07:49:35.468Z,21.36
2023-08-03T07:50:35.513Z,21.40
2023-08-03T07:51:35.636Z,21.38
2023-08-03T07:52:35.572Z,21.40
2023-08-03T07:53:35.611Z,21.31
2023-08-03T07:54:35.656Z,21.36
2023-08-03T07:55:35.683Z,21.40
2023-08-03T07:56:35.714Z,21.43
2023-08-03T07:57:35.765Z,21.42
2023-08-03T07:58:35.791Z,21.55
2023-08-03T07:59:35.822Z,21.58
2023-08-03T08:00:35.910Z,21.58
2023-08-03T08:01:36.023Z,21.55
2023-08-03T08:02:35.972Z,21.64
2023-08-03T08:03:36.018Z,21.68
2023-08-03T08:04:36.002Z,21.79
2023-08-03T08:05:36.044Z,21.71
2023-08-03T08:06:36.119Z,21.70
2023-08-03T08:07:36.885Z,21.71
2023-08-03T08:08:36.149Z,21.79
2023-08-03T08:09:36.184Z,21.83
2023-08-03T08:10:36.231Z,21.86
2023-08-03T08:11:36.288Z,21.83
2023-08-03T08:12:36.294Z,21.91
2023-08-03T08:13:36.341Z,21.94
2023-08-03T08:14:36.363Z,21.85
2023-08-03T08:15:36.505Z,21.85
2023-08-03T08:16:36.452Z,21.89
2023-08-03T08:17:36.527Z,21.93
2023-08-03T08:18:36.537Z,21.96
2023-08-03T08:19:36.545Z,21.96
2023-08-03T08:20:36.580Z,21.99
2023-08-03T08:21:36.677Z,21.89
2023-08-03T08:22:36.692Z,22.01
2023-08-03T08:23:36.688Z,21.91
2023-08-03T08:24:36.799Z,21.91
2023-08-03T08:25:36.928Z,21.91
2023-08-03T08:26:36.869Z,21.89
2023-08-03T08:27:36.875Z,21.94
2023-08-03T08:28:40.954Z,21.98
2023-08-03T08:29:36.949Z,21.86
2023-08-03T08:30:36.994Z,22.01
2023-08-03T08:32:37.075Z,22.06
2023-08-03T08:33:37.082Z,22.06
2023-08-03T08:34:37.092Z,21.98
2023-08-03T08:35:37.117Z,22.01
2023-08-03T08:36:37.188Z,22.04
2023-08-03T08:37:37.199Z,22.05
2023-08-03T08:38:37.234Z,22.02
2023-08-03T08:39:37.297Z,22.05
2023-08-03T08:40:37.305Z,21.94
2023-08-03T08:41:37.331Z,22.04
2023-08-03T08:42:37.401Z,21.98
2023-08-03T08:43:37.405Z,21.98
2023-08-03T08:44:37.440Z,21.94
2023-08-03T08:45:37.548Z,22.01
2023-08-03T08:46:37.585Z,22.05
2023-08-03T08:47:37.693Z,22.09
2023-08-03T08:49:41.018Z,22.29
2023-08-03T08:53:15.008Z,22.41
2023-08-03T08:59:37.985Z,22.69
2023-08-03T09:00:38.020Z,22.70
2023-08-03T09:01:38.061Z,22.81
2023-08-03T09:02:38.136Z,22.81
2023-08-03T09:04:31.824Z,22.86
2023-08-03T09:04:38.265Z,22.88
2023-08-03T09:06:38.330Z,22.96
2023-08-03T09:07:38.334Z,22.69
2023-08-03T09:08:38.309Z,22.66
2023-08-03T09:09:38.349Z,22.67
2023-08-03T09:10:38.384Z,22.66
2023-08-03T09:11:38.483Z,22.74
2023-08-03T09:12:38.497Z,22.84
2023-08-03T09:13:38.494Z,22.81
2023-08-03T09:14:38.529Z,22.88
2023-08-03T09:15:38.577Z,22.81
2023-08-03T09:16:38.965Z,22.74
2023-08-03T09:17:38.713Z,22.74
2023-08-03T09:18:38.757Z,22.76
2023-08-03T09:19:39.768Z,22.82
2023-08-03T09:24:38.917Z,23.26
2023-08-03T09:25:41.902Z,23.34
2023-08-03T09:28:39.224Z,23.23
2023-08-03T09:29:39.102Z,23.21
2023-08-03T09:30:39.118Z,23.19
2023-08-03T09:33:39.326Z,23.14
2023-08-03T09:36:39.348Z,23.21
2023-08-03T09:38:39.408Z,23.06
2023-08-03T09:39:39.478Z,22.96
2023-08-03T09:40:39.485Z,23.01
2023-08-03T09:42:39.581Z,23.03
2023-08-03T09:43:39.616Z,23.09
2023-08-03T09:44:39.629Z,23.01
2023-08-03T09:45:39.673Z,23.04
2023-08-03T09:46:39.731Z,23.07
2023-08-03T09:47:39.855Z,23.04
2023-08-03T09:48:39.812Z,23.00
2023-08-03T09:49:39.824Z,22.99
2023-08-03T09:50:39.887Z,22.97
2023-08-03T09:52:04.341Z,22.84
2023-08-03T09:53:40.007Z,22.61
2023-08-03T09:55:40.040Z,22.57
2023-08-03T09:56:40.095Z,22.44
2023-08-03T09:57:40.113Z,22.38
2023-08-03T09:58:40.145Z,22.46
2023-08-03T09:59:40.192Z,22.44
2023-08-03T10:00:40.249Z,22.41
2023-08-03T10:01:40.248Z,22.48
2023-08-03T10:02:40.297Z,22.54
2023-08-03T10:03:40.396Z,22.66
2023-08-03T10:04:40.369Z,22.74
2023-08-03T10:05:40.409Z,22.81
2023-08-03T10:06:40.455Z,22.96
2023-08-03T10:07:40.469Z,23.06
2023-08-03T10:08:40.511Z,23.22
2023-08-03T10:09:40.606Z,23.19
2023-08-03T10:10:40.585Z,23.25
2023-08-03T10:11:40.613Z,23.35
2023-08-03T10:12:40.687Z,23.37
2023-08-03T10:13:40.693Z,23.44
2023-08-03T10:14:40.744Z,23.37
2023-08-03T10:15:40.866Z,23.41
2023-08-03T10:16:40.846Z,23.49
2023-08-03T10:17:40.881Z,23.50
2023-08-03T10:19:40.942Z,23.60
2023-08-03T10:20:41.012Z,23.71
2023-08-03T10:21:41.031Z,23.67
2023-08-03T10:22:41.041Z,23.71
2023-08-03T10:23:41.060Z,23.78
2023-08-03T10:24:41.140Z,23.71
2023-08-03T10:25:41.138Z,23.69
2023-08-03T10:26:41.183Z,23.72
2023-08-03T10:27:41.255Z,23.71
2023-08-03T10:28:41.264Z,23.64
2023-08-03T10:29:41.276Z,23.52
2023-08-03T10:30:41.335Z,23.53
2023-08-03T10:31:41.385Z,23.39
2023-08-03T10:32:41.442Z,23.41
2023-08-03T10:33:41.460Z,23.44
2023-08-03T10:34:41.462Z,23.56
2023-08-03T10:35:41.555Z,23.49
2023-08-03T10:36:42.479Z,23.53
2023-08-03T10:37:41.575Z,23.50
2023-08-03T10:38:41.616Z,23.47
2023-08-03T10:39:41.677Z,23.38
2023-08-03T10:40:41.686Z,23.38
2023-08-03T10:41:41.755Z,23.32
2023-08-03T10:42:41.804Z,23.19
2023-08-03T10:43:41.799Z,23.15
2023-08-03T10:44:41.829Z,23.09
2023-08-03T10:45:41.964Z,23.09
2023-08-03T10:46:42.301Z,23.09
2023-08-03T10:47:42.101Z,22.99
2023-08-03T10:48:42.209Z,23.04
2023-08-03T10:49:42.019Z,23.19
2023-08-03T10:50:42.053Z,23.12
2023-08-03T10:51:42.097Z,23.25
2023-08-03T10:52:42.167Z,23.26
2023-08-03T10:53:42.171Z,23.25
2023-08-03T10:54:42.200Z,23.35
2023-08-03T10:55:42.257Z,23.34
2023-08-03T10:56:42.653Z,23.45
2023-08-03T10:57:42.308Z,23.45
2023-08-03T10:58:42.367Z,23.44
2023-08-03T10:59:43.733Z,23.45
2023-08-03T11:00:42.425Z,23.56
2023-08-03T11:01:42.489Z,23.49
2023-08-03T11:02:42.598Z,23.49
2023-08-03T11:03:42.606Z,23.35
2023-08-03T11:04:42.591Z,23.21
2023-08-03T11:05:42.605Z,23.22
2023-08-03T11:06:43.102Z,23.15
2023-08-03T11:07:42.749Z,23.06
2023-08-03T11:08:42.714Z,23.19
2023-08-03T11:09:42.756Z,23.09
2023-08-03T11:10:42.811Z,23.15
2023-08-03T11:11:42.825Z,23.11
2023-08-03T11:12:42.859Z,23.09
2023-08-03T11:13:42.945Z,23.21
2023-08-03T11:14:42.952Z,23.25
2023-08-03T11:15:43.013Z,23.32
2023-08-03T11:16:43.342Z,23.42
2023-08-03T11:17:43.084Z,23.39
2023-08-03T11:18:43.083Z,23.37
2023-08-03T11:19:43.166Z,23.29
2023-08-03T11:20:43.178Z,23.37
2023-08-03T11:21:43.209Z,23.57
2023-08-03T11:22:43.283Z,23.64
2023-08-03T11:23:43.275Z,23.63
2023-08-03T11:24:43.303Z,23.71
2023-08-03T11:25:43.366Z,23.67
2023-08-03T11:26:43.584Z,23.77
2023-08-03T11:27:43.424Z,23.68
2023-08-03T11:28:43.535Z,23.75
2023-08-03T11:29:44.053Z,23.78
2023-08-03T11:30:43.542Z,23.75
2023-08-03T11:31:43.598Z,23.78
2023-08-03T11:32:43.643Z,23.84
2023-08-03T11:33:43.674Z,23.77
2023-08-03T11:34:43.717Z,23.72
2023-08-03T11:35:44.046Z,23.47
2023-08-03T11:36:44.049Z,23.45
2023-08-03T11:37:43.825Z,23.39
2023-08-03T11:38:43.823Z,23.31
2023-08-03T11:39:43.864Z,23.15
2023-08-03T11:40:43.957Z,23.06
2023-08-03T11:41:43.944Z,23.06
2023-08-03T11:42:43.980Z,22.99
2023-08-03T11:43:44.058Z,23.00
2023-08-03T11:44:54.906Z,23.09
2023-08-03T11:45:44.122Z,23.07
2023-08-03T11:46:44.337Z,23.19
2023-08-03T11:47:44.743Z,23.32
2023-08-03T11:48:44.192Z,23.41
2023-08-03T11:49:44.270Z,23.44
2023-08-03T11:50:44.265Z,23.25
2023-08-03T11:51:44.305Z,23.37
2023-08-03T11:52:44.372Z,23.42
2023-08-03T11:53:44.384Z,23.54
2023-08-03T11:54:44.415Z,23.56
2023-08-03T11:55:44.462Z,23.57
2023-08-03T11:56:45.178Z,23.56
2023-08-03T11:57:44.542Z,23.50
2023-08-03T11:58:44.586Z,23.39
2023-08-03T11:59:44.621Z,23.42
2023-08-03T12:00:44.650Z,23.37
2023-08-03T12:01:45.050Z,23.47
2023-08-03T12:02:44.874Z,23.45
2023-08-03T12:03:44.806Z,23.50
2023-08-03T12:13:22.199Z,23.09
2023-08-03T12:13:53.208Z,23.11
2023-08-03T12:15:58.286Z,23.01
2023-08-03T12:16:59.275Z,23.04
2023-08-03T12:19:02.439Z,23.01
2023-08-03T12:20:02.412Z,23.00
2023-08-03T12:22:06.532Z,23.01
2023-08-03T12:23:06.512Z,23.00
2023-08-03T12:24:59.735Z,22.99
2023-08-03T12:25:59.718Z,22.97
2023-08-03T12:28:03.879Z,23.03
2023-08-03T12:31:07.918Z,23.06
2023-08-03T12:32:07.939Z,23.06
2023-08-03T12:34:12.013Z,23.22
2023-08-03T12:35:12.063Z,23.18
2023-08-03T12:37:16.899Z,23.01
2023-08-03T12:38:16.108Z,23.03
2023-08-03T12:40:20.212Z,23.06
2023-08-03T12:41:20.205Z,23.06
2023-08-03T12:43:24.332Z,23.19
2023-08-03T12:44:24.302Z,23.06
2023-08-03T12:46:17.525Z,23.18
2023-08-03T12:47:17.503Z,23.16
2023-08-03T12:49:10.555Z,23.25
2023-08-03T12:50:10.705Z,23.15
2023-08-03T12:52:14.578Z,22.85
2023-08-03T12:53:14.661Z,22.72
2023-08-03T12:55:18.712Z,22.61
2023-08-03T12:56:18.714Z,22.39
2023-08-03T12:58:22.800Z,22.24
2023-08-03T12:59:22.890Z,22.15
2023-08-03T13:01:27.027Z,22.06
2023-08-03T13:02:27.013Z,22.06
2023-08-03T13:04:20.183Z,21.90
2023-08-03T13:05:20.304Z,21.99
2023-08-03T13:07:24.285Z,22.06
2023-08-03T13:08:24.343Z,21.96
2023-08-03T13:10:28.292Z,21.96
2023-08-03T13:11:28.382Z,22.01
2023-08-03T13:13:21.521Z,22.06
2023-08-03T13:14:21.555Z,22.04
2023-08-03T13:15:21.585Z,22.01
2023-08-03T13:16:21.614Z,22.06
2023-08-03T13:17:21.930Z,22.17
2023-08-03T13:18:21.868Z,22.23
2023-08-03T13:19:21.696Z,22.24
2023-08-03T13:20:21.782Z,22.36
2023-08-03T13:21:23.143Z,22.39
2023-08-03T13:22:21.809Z,22.44
2023-08-03T13:23:21.862Z,22.49
2023-08-03T13:24:21.886Z,22.42
2023-08-03T13:25:21.921Z,22.45
2023-08-03T13:26:21.997Z,22.41
2023-08-03T13:27:21.991Z,22.39
2023-08-03T13:28:22.097Z,22.41
2023-08-03T13:29:22.106Z,22.49
2023-08-03T13:30:22.098Z,22.44
2023-08-03T13:31:22.238Z,22.36
2023-08-03T13:32:22.258Z,22.38
2023-08-03T13:33:22.294Z,22.39
2023-08-03T13:34:22.246Z,22.38
2023-08-03T13:35:22.340Z,22.35
2023-08-03T13:36:22.325Z,22.33
2023-08-03T13:37:22.352Z,22.36
2023-08-03T13:38:22.550Z,22.35
2023-08-03T13:39:22.575Z,22.27
2023-08-03T13:40:22.463Z,22.33
2023-08-03T13:41:22.538Z,22.24
2023-08-03T13:42:22.560Z,22.31
2023-08-03T13:43:22.606Z,22.39
2023-08-03T13:44:22.649Z,22.30
2023-08-03T13:45:22.646Z,22.27
2023-08-03T13:46:22.712Z,22.21
2023-08-03T13:47:22.754Z,22.29
2023-08-03T13:48:22.795Z,22.35
2023-08-03T13:49:22.797Z,22.33
2023-08-03T13:50:22.834Z,22.23
2023-08-03T13:51:22.862Z,22.36
2023-08-03T13:52:22.892Z,22.31
2023-08-03T13:53:22.959Z,22.23
2023-08-03T13:54:22.971Z,22.42
2023-08-03T13:55:23.006Z,22.29
2023-08-03T13:56:32.233Z,22.23
2023-08-03T13:59:23.215Z,22.31
2023-08-03T14:00:23.184Z,22.26
2023-08-03T14:04:23.398Z,22.31
2023-08-03T14:06:23.458Z,22.29
2023-08-03T14:08:23.561Z,22.23
2023-08-03T14:09:23.563Z,22.23
2023-08-03T14:10:27.229Z,22.27
2023-08-03T14:11:23.681Z,22.24
2023-08-03T14:12:23.623Z,22.24